Clearbrook, Washington
Current Conditions -  °F | °C
As of 3:00 PM on Tuesday 25 Nov 2014 (Local Time) from CYXX Reporting Station
Light Rain Light Rain  
Wind Chill:   Ceiling: 1500
Heat Index:   Visibility: 4mi
Dew Point:   Wind: 7mph
Humidity: 100%   Direction: 20°NNE
Pressure: 30.21"   Gusts: NA
Location:  48.9612°N, 122.12°W
Report Text: CYXX 252300Z 02006KT 4SM -RA BR SCT003 OVC015 07/07 A3021 RMK SF4NS4 SLP232
Loading
Personal Weather Stations






























Interactive Weather Map New forecast layout! Learn more

10-Day Weather Forecast

Advertisements
Track Severe Weather on mobile